首页
METAR-TAF:

METAR-TAF

机场 :

鲁珀特王子港, 不列颠哥伦比亚, 加拿大

纬度: 54-18N, 经度: 130-26W, 海拔: 34米

当前天气观测

该预报发布于20分钟前的14:48 UTC
风速9节,风向南转南东,有时为18节阵风
温度 8°C
湿度 93%
气压 1005 hPa
能見度: 8.0公里
阴天层高于4000英尺
小雨, 轻雾

METAR: CYPR 261448Z AUTO 16009G18KT 5SM -RA BR OVC040 08/07 A2969 RMK PCPN 0.5MM PAST HR SLP058

时间: 08:08 (15:08 UTC)

预报

该预报发布于2小时和28分钟前的12:40 UTC
预报有效从26日的 13点(UTC)到 27日的 01点(UTC)
风速8节,风向东南
能見度: 10公里
散云层高于2000英尺
阴天层高于4000英尺
小雨
从 26日的 1500点(UTC)
风速10节,风向东南
能見度: 10公里
散云层高于1500英尺
阴天层高于3000英尺
小雨
短暂存在
从 26日的 15点(UTC)到 27日的 01点(UTC)
能見度: 6.4公里
多云层高于1500英尺
阴天层高于3000英尺
小雨, 轻雾
成为
从 26日的 20点(UTC)到 26日的 22点(UTC)
风速10节,风向南转南东,有时为20节阵风

TAF: CYPR 261240Z 2613/2701 13008KT P6SM -RA SCT020 OVC040 FM261500 14010KT P6SM -RA SCT015 OVC030 TEMPO 2615/2701 4SM -RA BR BKN015 OVC030 BECMG 2620/2622 16010G20KT RMK FCST BASED ON AUTO OBS. NXT FCST BY 261900Z

超过4000个机场的气象观测和天气预报(METAR&TAF报告)。

可查询的气象台以黄色和红色小点在地图上表示。

将鼠标移到小点上方,可查看气象台名称。

然后点击查看天气观测和预报。

如需切换地图:点击带黑十字的绿色按钮放大地图;点击带横线的绿色按钮缩小地图;或者点击绿色箭头查看邻近地区的地图。


METAR-TAF: